sensor_id;sensor_type;location;lat;lon;timestamp;pressure;altitude;pressure_sealevel;temperature;humidity
71057;BME280;58380;48.312;9.246;2022-08-01T07:35:45;93844.28;;;21.72;55.83
71057;BME280;58380;48.312;9.246;2022-08-01T07:38:14;93849.91;;;21.88;55.93
71057;BME280;58380;48.312;9.246;2022-08-01T07:40:43;93825.81;;;21.71;55.73
71057;BME280;58380;48.312;9.246;2022-08-01T07:43:12;93830.38;;;21.79;55.65
71057;BME280;58380;48.312;9.246;2022-08-01T07:45:41;93829.19;;;21.89;54.59
71057;BME280;58380;48.312;9.246;2022-08-01T07:48:10;93828.19;;;22.02;54.18
71057;BME280;58380;48.312;9.246;2022-08-01T07:50:38;93799.19;;;21.87;54.28
71057;BME280;58380;48.312;9.246;2022-08-01T07:53:10;93735.38;;;21.45;53.53
71057;BME280;58380;48.312;9.246;2022-08-01T07:55:38;93843.44;;;22.19;54.73
71057;BME280;58380;48.312;9.246;2022-08-01T07:58:07;93742.59;;;21.83;54.21
71057;BME280;58380;48.312;9.246;2022-08-01T08:00:36;93828.94;;;22.41;52.97
71057;BME280;58380;48.312;9.246;2022-08-01T08:03:05;93825.91;;;22.13;53.64
71057;BME280;58380;48.312;9.246;2022-08-01T08:05:34;93785.50;;;22.01;53.08
71057;BME280;58380;48.312;9.246;2022-08-01T08:08:04;93830.84;;;22.40;52.86
71057;BME280;58380;48.312;9.246;2022-08-01T08:10:36;93779.84;;;22.23;53.04
71057;BME280;58380;48.312;9.246;2022-08-01T08:13:05;93795.47;;;22.30;51.92
71057;BME280;58380;48.312;9.246;2022-08-01T08:15:33;93812.41;;;22.30;53.36
71057;BME280;58380;48.312;9.246;2022-08-01T08:18:02;93821.44;;;22.26;52.91
71057;BME280;58380;48.312;9.246;2022-08-01T08:20:31;93750.63;;;22.13;52.77
71057;BME280;58380;48.312;9.246;2022-08-01T08:23:01;93820.53;;;22.85;51.94
71057;BME280;58380;48.312;9.246;2022-08-01T08:25:52;93797.03;;;22.73;52.67
71057;BME280;58380;48.312;9.246;2022-08-01T08:28:20;93776.38;;;22.44;50.60
71057;BME280;58380;48.312;9.246;2022-08-01T08:30:49;93823.44;;;22.79;50.95
71057;BME280;58380;48.312;9.246;2022-08-01T08:33:18;93811.88;;;22.58;52.58
71057;BME280;58380;48.312;9.246;2022-08-01T08:35:47;93756.72;;;22.01;52.43
71057;BME280;58380;48.312;9.246;2022-08-01T08:38:16;93837.22;;;22.57;52.52
71057;BME280;58380;48.312;9.246;2022-08-01T08:40:44;93804.91;;;22.36;52.83
71057;BME280;58380;48.312;9.246;2022-08-01T08:43:16;93831.56;;;22.71;52.86
71057;BME280;58380;48.312;9.246;2022-08-01T08:45:46;93766.66;;;22.51;51.64
71057;BME280;58380;48.312;9.246;2022-08-01T08:48:16;93780.25;;;22.55;52.25
71057;BME280;58380;48.312;9.246;2022-08-01T08:50:45;93754.28;;;22.38;50.71
71057;BME280;58380;48.312;9.246;2022-08-01T08:53:16;93835.25;;;22.87;51.61
71057;BME280;58380;48.312;9.246;2022-08-01T08:55:47;93833.41;;;23.00;52.02
71057;BME280;58380;48.312;9.246;2022-08-01T08:58:20;93763.28;;;22.42;51.10
71057;BME280;58380;48.312;9.246;2022-08-01T09:00:50;93832.41;;;22.83;50.10
71057;BME280;58380;48.312;9.246;2022-08-01T09:03:19;93773.44;;;22.57;51.22
71057;BME280;58380;48.312;9.246;2022-08-01T09:05:48;93756.19;;;22.37;49.87
71057;BME280;58380;48.312;9.246;2022-08-01T09:08:17;93825.34;;;22.79;50.80
71057;BME280;58380;48.312;9.246;2022-08-01T09:10:46;93796.53;;;22.79;50.41
71057;BME280;58380;48.312;9.246;2022-08-01T09:13:15;93782.44;;;22.95;49.09
71057;BME280;58380;48.312;9.246;2022-08-01T09:15:48;93781.03;;;22.97;48.69
71057;BME280;58380;48.312;9.246;2022-08-01T09:18:27;93816.69;;;23.40;49.97
71057;BME280;58380;48.312;9.246;2022-08-01T09:21:17;93841.00;;;23.64;48.44
71057;BME280;58380;48.312;9.246;2022-08-01T09:23:53;93820.81;;;23.25;48.44
71057;BME280;58380;48.312;9.246;2022-08-01T09:26:30;93806.16;;;23.01;50.75
71057;BME280;58380;48.312;9.246;2022-08-01T09:29:03;93834.75;;;23.27;48.40
71057;BME280;58380;48.312;9.246;2022-08-01T09:31:43;93808.56;;;23.15;49.57
71057;BME280;58380;48.312;9.246;2022-08-01T09:34:13;93829.53;;;23.67;48.76
71057;BME280;58380;48.312;9.246;2022-08-01T09:36:46;93847.97;;;23.65;48.07
71057;BME280;58380;48.312;9.246;2022-08-01T09:39:18;93796.16;;;23.35;48.20
71057;BME280;58380;48.312;9.246;2022-08-01T09:41:48;93839.78;;;23.29;47.98
71057;BME280;58380;48.312;9.246;2022-08-01T09:44:18;93788.75;;;22.78;48.87
71057;BME280;58380;48.312;9.246;2022-08-01T09:46:55;93831.91;;;23.23;48.60
71057;BME280;58380;48.312;9.246;2022-08-01T09:49:32;93788.53;;;23.37;47.91
71057;BME280;58380;48.312;9.246;2022-08-01T09:52:12;93768.78;;;23.58;47.72
71057;BME280;58380;48.312;9.246;2022-08-01T09:54:51;93827.69;;;24.05;46.12
71057;BME280;58380;48.312;9.246;2022-08-01T09:57:21;93819.91;;;23.79;47.65
71057;BME280;58380;48.312;9.246;2022-08-01T09:59:52;93813.84;;;23.69;47.97
71057;BME280;58380;48.312;9.246;2022-08-01T10:02:35;93818.19;;;23.50;48.36
71057;BME280;58380;48.312;9.246;2022-08-01T10:05:09;93811.19;;;23.24;48.54
71057;BME280;58380;48.312;9.246;2022-08-01T10:07:56;93800.69;;;23.10;48.93
71057;BME280;58380;48.312;9.246;2022-08-01T10:10:27;93800.31;;;22.99;48.22
71057;BME280;58380;48.312;9.246;2022-08-01T10:12:59;93808.28;;;23.29;49.16
71057;BME280;58380;48.312;9.246;2022-08-01T10:15:29;93807.75;;;23.60;48.50
71057;BME280;58380;48.312;9.246;2022-08-01T10:18:04;93791.63;;;23.85;47.16
71057;BME280;58380;48.312;9.246;2022-08-01T10:20:35;93748.81;;;23.83;46.01
71057;BME280;58380;48.312;9.246;2022-08-01T10:23:04;93802.69;;;24.57;44.32
71057;BME280;58380;48.312;9.246;2022-08-01T10:25:35;93761.19;;;24.62;44.52
71057;BME280;58380;48.312;9.246;2022-08-01T10:28:22;93707.28;;;24.37;45.85
71057;BME280;58380;48.312;9.246;2022-08-01T10:30:59;93761.97;;;24.62;44.47
71057;BME280;58380;48.312;9.246;2022-08-01T10:33:31;93795.50;;;24.61;44.64
71057;BME280;58380;48.312;9.246;2022-08-01T10:36:02;93750.25;;;24.18;44.66
71057;BME280;58380;48.312;9.246;2022-08-01T10:38:32;93785.63;;;24.16;46.97
71057;BME280;58380;48.312;9.246;2022-08-01T10:41:03;93763.28;;;24.16;47.58
71057;BME280;58380;48.312;9.246;2022-08-01T10:43:32;93764.53;;;24.06;45.23
71057;BME280;58380;48.312;9.246;2022-08-01T10:46:04;93774.69;;;23.84;46.12
71057;BME280;58380;48.312;9.246;2022-08-01T10:48:41;93777.16;;;23.77;46.81
71057;BME280;58380;48.312;9.246;2022-08-01T10:51:15;93770.75;;;23.94;44.75
71057;BME280;58380;48.312;9.246;2022-08-01T10:53:46;93773.13;;;24.36;44.46
71057;BME280;58380;48.312;9.246;2022-08-01T10:56:18;93781.16;;;24.73;43.03
71057;BME280;58380;48.312;9.246;2022-08-01T10:58:47;93767.66;;;24.73;41.72
71057;BME280;58380;48.312;9.246;2022-08-01T11:01:22;93762.63;;;24.71;41.79
71057;BME280;58380;48.312;9.246;2022-08-01T11:04:03;93767.91;;;24.68;41.99
71057;BME280;58380;48.312;9.246;2022-08-01T11:06:53;93745.28;;;24.32;43.17
71057;BME280;58380;48.312;9.246;2022-08-01T11:09:39;93735.06;;;24.66;44.96
71057;BME280;58380;48.312;9.246;2022-08-01T11:12:12;93759.38;;;24.94;42.04
71057;BME280;58380;48.312;9.246;2022-08-01T11:17:55;93764.09;;;24.97;43.11
71057;BME280;58380;48.312;9.246;2022-08-01T11:20:27;93759.97;;;25.03;44.44
71057;BME280;58380;48.312;9.246;2022-08-01T11:23:25;93753.06;;;25.18;44.17
71057;BME280;58380;48.312;9.246;2022-08-01T11:26:16;93747.16;;;25.60;42.39
71057;BME280;58380;48.312;9.246;2022-08-01T11:29:13;93719.69;;;25.58;42.37
71057;BME280;58380;48.312;9.246;2022-08-01T11:31:43;93758.75;;;25.60;39.56
71057;BME280;58380;48.312;9.246;2022-08-01T11:34:12;93731.66;;;25.25;38.12
71057;BME280;58380;48.312;9.246;2022-08-01T11:36:43;93747.28;;;25.04;39.82
71057;BME280;58380;48.312;9.246;2022-08-01T11:39:14;93756.69;;;24.94;41.17
71057;BME280;58380;48.312;9.246;2022-08-01T11:41:46;93757.75;;;24.49;45.67
71057;BME280;58380;48.312;9.246;2022-08-01T11:44:18;93686.94;;;23.99;46.18
71057;BME280;58380;48.312;9.246;2022-08-01T11:46:55;93732.25;;;24.34;47.08
71057;BME280;58380;48.312;9.246;2022-08-01T11:49:43;93720.97;;;23.92;47.15
71057;BME280;58380;48.312;9.246;2022-08-01T11:52:36;93663.94;;;23.40;47.75
71057;BME280;58380;48.312;9.246;2022-08-01T11:55:09;93702.66;;;23.60;47.49
71057;BME280;58380;48.312;9.246;2022-08-01T11:57:38;93711.53;;;23.48;48.22
71057;BME280;58380;48.312;9.246;2022-08-01T12:00:11;93771.41;;;23.79;48.64
71057;BME280;58380;48.312;9.246;2022-08-01T12:02:42;93705.59;;;23.43;48.93
71057;BME280;58380;48.312;9.246;2022-08-01T12:05:12;93759.84;;;23.78;48.67
71057;BME280;58380;48.312;9.246;2022-08-01T12:07:49;93747.25;;;23.70;48.97
71057;BME280;58380;48.312;9.246;2022-08-01T12:10:22;93758.91;;;23.99;49.41
71057;BME280;58380;48.312;9.246;2022-08-01T12:12:54;93731.59;;;24.13;48.70
71057;BME280;58380;48.312;9.246;2022-08-01T12:15:24;93648.03;;;24.00;48.03
71057;BME280;58380;48.312;9.246;2022-08-01T12:18:00;93743.59;;;25.24;49.40
71057;BME280;58380;48.312;9.246;2022-08-01T12:20:31;93737.91;;;25.77;46.25
71057;BME280;58380;48.312;9.246;2022-08-01T12:23:06;93733.78;;;26.15;45.06
71057;BME280;58380;48.312;9.246;2022-08-01T12:25:37;93712.63;;;26.01;44.83
71057;BME280;58380;48.312;9.246;2022-08-01T12:28:10;93669.94;;;25.59;44.37
71057;BME280;58380;48.312;9.246;2022-08-01T12:30:41;93694.00;;;25.16;43.35
71057;BME280;58380;48.312;9.246;2022-08-01T12:33:10;93703.97;;;25.16;45.49
71057;BME280;58380;48.312;9.246;2022-08-01T12:35:46;93735.81;;;25.23;44.97
71057;BME280;58380;48.312;9.246;2022-08-01T12:38:20;93725.19;;;25.30;43.57
71057;BME280;58380;48.312;9.246;2022-08-01T12:40:50;93735.81;;;25.70;44.00
71057;BME280;58380;48.312;9.246;2022-08-01T12:43:20;93731.28;;;25.90;42.50
71057;BME280;58380;48.312;9.246;2022-08-01T12:45:50;93740.72;;;25.96;42.67
71057;BME280;58380;48.312;9.246;2022-08-01T12:48:21;93719.50;;;25.82;43.33
71057;BME280;58380;48.312;9.246;2022-08-01T12:50:51;93667.84;;;25.52;42.79
71057;BME280;58380;48.312;9.246;2022-08-01T12:53:25;93710.91;;;25.61;44.03
71057;BME280;58380;48.312;9.246;2022-08-01T12:55:55;93675.41;;;25.15;44.06
71057;BME280;58380;48.312;9.246;2022-08-01T12:58:23;93664.75;;;24.90;43.55
71057;BME280;58380;48.312;9.246;2022-08-01T13:01:03;93708.41;;;25.08;44.37
71057;BME280;58380;48.312;9.246;2022-08-01T13:03:32;93729.94;;;25.05;44.27
71057;BME280;58380;48.312;9.246;2022-08-01T13:06:10;93708.47;;;24.80;44.90
71057;BME280;58380;48.312;9.246;2022-08-01T13:08:43;93709.19;;;25.21;48.42
71057;BME280;58380;48.312;9.246;2022-08-01T13:11:14;93690.41;;;25.60;44.66
71057;BME280;58380;48.312;9.246;2022-08-01T13:13:45;93718.56;;;26.26;43.82
71057;BME280;58380;48.312;9.246;2022-08-01T13:16:16;93721.94;;;26.58;44.13
71057;BME280;58380;48.312;9.246;2022-08-01T13:18:48;93719.84;;;26.52;43.78
71057;BME280;58380;48.312;9.246;2022-08-01T13:21:20;93718.94;;;26.44;45.03
71057;BME280;58380;48.312;9.246;2022-08-01T13:24:07;93722.94;;;26.15;44.76
71057;BME280;58380;48.312;9.246;2022-08-01T13:26:40;93639.84;;;25.13;44.12
71057;BME280;58380;48.312;9.246;2022-08-01T13:29:11;93685.19;;;25.35;43.87
71057;BME280;58380;48.312;9.246;2022-08-01T13:31:41;93681.19;;;25.45;43.69
71057;BME280;58380;48.312;9.246;2022-08-01T13:34:11;93672.81;;;25.34;42.60
71057;BME280;58380;48.312;9.246;2022-08-01T13:36:40;93712.81;;;25.60;42.09
71057;BME280;58380;48.312;9.246;2022-08-01T13:39:12;93692.59;;;25.38;44.11
71057;BME280;58380;48.312;9.246;2022-08-01T13:41:53;93698.81;;;25.39;45.20
71057;BME280;58380;48.312;9.246;2022-08-01T13:44:21;93688.66;;;25.68;44.33
71057;BME280;58380;48.312;9.246;2022-08-01T13:46:50;93621.84;;;25.68;43.20
71057;BME280;58380;48.312;9.246;2022-08-01T13:49:19;93686.50;;;26.47;40.36
71057;BME280;58380;48.312;9.246;2022-08-01T13:51:47;93681.91;;;26.67;43.34
71057;BME280;58380;48.312;9.246;2022-08-01T13:54:18;93649.38;;;26.87;39.91
71057;BME280;58380;48.312;9.246;2022-08-01T13:56:48;93637.59;;;26.56;39.34
71057;BME280;58380;48.312;9.246;2022-08-01T13:59:17;93707.88;;;26.33;39.04
71057;BME280;58380;48.312;9.246;2022-08-01T14:01:46;93640.75;;;25.49;40.89
71057;BME280;58380;48.312;9.246;2022-08-01T14:04:15;93704.59;;;26.24;40.28
71057;BME280;58380;48.312;9.246;2022-08-01T14:06:44;93680.94;;;26.40;40.40
71057;BME280;58380;48.312;9.246;2022-08-01T14:09:13;93689.56;;;26.85;37.56
71057;BME280;58380;48.312;9.246;2022-08-01T14:11:44;93693.00;;;27.24;37.14
71057;BME280;58380;48.312;9.246;2022-08-01T14:14:13;93596.69;;;26.61;36.75
71057;BME280;58380;48.312;9.246;2022-08-01T14:16:42;93632.59;;;27.24;35.46
71057;BME280;58380;48.312;9.246;2022-08-01T14:19:11;93696.34;;;27.87;35.65
71057;BME280;58380;48.312;9.246;2022-08-01T14:21:41;93639.00;;;26.93;35.52
71057;BME280;58380;48.312;9.246;2022-08-01T14:24:10;93668.53;;;26.78;35.29
71057;BME280;58380;48.312;9.246;2022-08-01T14:26:38;93683.09;;;27.13;35.30
71057;BME280;58380;48.312;9.246;2022-08-01T14:29:09;93683.19;;;27.39;36.37
71057;BME280;58380;48.312;9.246;2022-08-01T14:31:38;93666.63;;;27.44;37.66
71057;BME280;58380;48.312;9.246;2022-08-01T14:34:07;93620.66;;;27.05;36.02
71057;BME280;58380;48.312;9.246;2022-08-01T14:36:35;93640.25;;;26.76;35.88
71057;BME280;58380;48.312;9.246;2022-08-01T14:39:04;93693.38;;;27.46;37.04
71057;BME280;58380;48.312;9.246;2022-08-01T14:41:33;93582.59;;;26.98;35.25
71057;BME280;58380;48.312;9.246;2022-08-01T14:44:03;93683.13;;;27.85;35.45
71057;BME280;58380;48.312;9.246;2022-08-01T14:46:35;93667.66;;;27.86;35.45
71057;BME280;58380;48.312;9.246;2022-08-01T14:49:04;93652.34;;;27.01;37.66
71057;BME280;58380;48.312;9.246;2022-08-01T14:51:33;93693.28;;;27.88;36.73
71057;BME280;58380;48.312;9.246;2022-08-01T14:54:03;93696.00;;;27.42;37.03
71057;BME280;58380;48.312;9.246;2022-08-01T14:56:32;93694.34;;;27.34;38.66
71057;BME280;58380;48.312;9.246;2022-08-01T14:59:01;93627.56;;;26.80;36.69
71057;BME280;58380;48.312;9.246;2022-08-01T15:01:29;93638.19;;;26.88;37.73
71057;BME280;58380;48.312;9.246;2022-08-01T15:04:00;93608.91;;;27.44;37.44
71057;BME280;58380;48.312;9.246;2022-08-01T15:06:29;93584.34;;;27.86;37.87
71057;BME280;58380;48.312;9.246;2022-08-01T15:08:58;93659.59;;;28.87;33.99
71057;BME280;58380;48.312;9.246;2022-08-01T15:11:26;93621.13;;;28.85;34.90
71057;BME280;58380;48.312;9.246;2022-08-01T15:13:55;93647.31;;;29.45;34.32
71057;BME280;58380;48.312;9.246;2022-08-01T15:16:36;93677.22;;;29.97;31.50
71057;BME280;58380;48.312;9.246;2022-08-01T15:19:08;93633.88;;;28.44;33.24
71057;BME280;58380;48.312;9.246;2022-08-01T15:21:36;93681.91;;;28.09;34.59
71057;BME280;58380;48.312;9.246;2022-08-01T15:24:06;93700.19;;;27.17;35.99
71057;BME280;58380;48.312;9.246;2022-08-01T15:26:35;93653.59;;;26.65;35.21
71057;BME280;58380;48.312;9.246;2022-08-01T15:29:04;93704.03;;;27.35;35.44
71057;BME280;58380;48.312;9.246;2022-08-01T15:31:33;93699.09;;;27.90;34.82
71057;BME280;58380;48.312;9.246;2022-08-01T15:34:01;93640.22;;;27.68;35.13
71057;BME280;58380;48.312;9.246;2022-08-01T15:36:32;93659.91;;;27.88;35.51
71057;BME280;58380;48.312;9.246;2022-08-01T15:39:01;93678.91;;;27.88;36.89
71057;BME280;58380;48.312;9.246;2022-08-01T15:41:29;93709.59;;;28.18;38.17
71057;BME280;58380;48.312;9.246;2022-08-01T15:44:00;93633.34;;;27.47;37.72
71057;BME280;58380;48.312;9.246;2022-08-01T15:46:29;93654.78;;;27.56;38.28
71057;BME280;58380;48.312;9.246;2022-08-01T15:49:01;93689.25;;;27.09;39.95
71057;BME280;58380;48.312;9.246;2022-08-01T15:51:34;93710.78;;;27.02;42.50
71057;BME280;58380;48.312;9.246;2022-08-01T15:54:02;93687.03;;;26.53;40.89
71057;BME280;58380;48.312;9.246;2022-08-01T15:56:31;93725.84;;;26.41;43.19
71057;BME280;58380;48.312;9.246;2022-08-01T15:59:00;93704.97;;;26.42;41.82
71057;BME280;58380;48.312;9.246;2022-08-01T16:01:29;93724.38;;;26.63;43.10
71057;BME280;58380;48.312;9.246;2022-08-01T16:04:03;93635.38;;;26.03;44.07
71057;BME280;58380;48.312;9.246;2022-08-01T16:06:36;93696.91;;;26.26;43.94
71057;BME280;58380;48.312;9.246;2022-08-01T16:09:05;93684.13;;;26.07;43.75
71057;BME280;58380;48.312;9.246;2022-08-01T16:11:34;93714.84;;;26.15;44.13
71057;BME280;58380;48.312;9.246;2022-08-01T16:14:03;93680.28;;;25.89;44.65
71057;BME280;58380;48.312;9.246;2022-08-01T16:16:32;93648.81;;;25.65;45.15
71057;BME280;58380;48.312;9.246;2022-08-01T16:19:01;93625.63;;;25.48;44.04
71057;BME280;58380;48.312;9.246;2022-08-01T16:21:29;93675.91;;;25.68;45.00
71057;BME280;58380;48.312;9.246;2022-08-01T16:24:01;93643.63;;;25.24;44.91
71057;BME280;58380;48.312;9.246;2022-08-01T16:26:29;93622.44;;;24.94;44.86
71057;BME280;58380;48.312;9.246;2022-08-01T16:28:58;93617.63;;;24.88;45.23
71057;BME280;58380;48.312;9.246;2022-08-01T16:31:27;93664.59;;;25.15;45.04
71057;BME280;58380;48.312;9.246;2022-08-01T16:33:56;93681.97;;;25.30;46.56
71057;BME280;58380;48.312;9.246;2022-08-01T16:36:25;93687.38;;;25.30;46.20
71057;BME280;58380;48.312;9.246;2022-08-01T16:38:53;93704.22;;;25.39;46.24
71057;BME280;58380;48.312;9.246;2022-08-01T16:41:24;93658.66;;;24.93;45.05
71057;BME280;58380;48.312;9.246;2022-08-01T16:43:53;93660.38;;;24.86;45.59
71057;BME280;58380;48.312;9.246;2022-08-01T16:46:22;93693.50;;;24.98;47.33
71057;BME280;58380;48.312;9.246;2022-08-01T16:48:52;93640.06;;;24.60;47.98
71057;BME280;58380;48.312;9.246;2022-08-01T16:51:21;93723.13;;;24.95;47.64
71057;BME280;58380;48.312;9.246;2022-08-01T16:53:50;93704.09;;;24.75;46.90
71057;BME280;58380;48.312;9.246;2022-08-01T16:56:18;93727.56;;;24.87;46.22
71057;BME280;58380;48.312;9.246;2022-08-01T16:58:50;93648.06;;;24.28;47.34
71057;BME280;58380;48.312;9.246;2022-08-01T17:01:18;93672.63;;;24.51;46.60
71057;BME280;58380;48.312;9.246;2022-08-01T17:03:49;93639.53;;;24.26;48.32
71057;BME280;58380;48.312;9.246;2022-08-01T17:06:18;93727.53;;;24.71;47.88
71057;BME280;58380;48.312;9.246;2022-08-01T17:08:47;93703.88;;;24.40;48.54
71057;BME280;58380;48.312;9.246;2022-08-01T17:11:16;93736.59;;;24.51;47.96
71057;BME280;58380;48.312;9.246;2022-08-01T17:13:44;93694.75;;;24.17;48.40
71057;BME280;58380;48.312;9.246;2022-08-01T17:16:15;93713.97;;;24.15;49.17
71057;BME280;58380;48.312;9.246;2022-08-01T17:18:44;93679.44;;;23.80;49.47
71057;BME280;58380;48.312;9.246;2022-08-01T17:21:13;93721.75;;;23.92;49.77
71057;BME280;58380;48.312;9.246;2022-08-01T17:23:42;93681.22;;;23.52;50.89
71057;BME280;58380;48.312;9.246;2022-08-01T17:26:11;93662.16;;;23.32;53.24
71057;BME280;58380;48.312;9.246;2022-08-01T17:28:39;93742.06;;;23.65;57.45
71057;BME280;58380;48.312;9.246;2022-08-01T17:31:08;93731.50;;;23.23;59.12
71057;BME280;58380;48.312;9.246;2022-08-01T17:33:39;93741.78;;;23.09;60.59
71057;BME280;58380;48.312;9.246;2022-08-01T17:36:08;93728.41;;;22.67;60.72
71057;BME280;58380;48.312;9.246;2022-08-01T17:38:37;93748.44;;;22.57;62.71
71057;BME280;58380;48.312;9.246;2022-08-01T17:41:06;93724.94;;;22.03;63.43
71057;BME280;58380;48.312;9.246;2022-08-01T17:43:34;93733.63;;;21.79;67.88
71057;BME280;58380;48.312;9.246;2022-08-01T17:46:03;93746.16;;;21.66;68.05
71057;BME280;58380;48.312;9.246;2022-08-01T17:48:31;93731.31;;;21.39;70.09
71057;BME280;58380;48.312;9.246;2022-08-01T17:51:02;93740.03;;;21.19;70.28
71057;BME280;58380;48.312;9.246;2022-08-01T17:53:31;93753.91;;;21.21;70.51
71057;BME280;58380;48.312;9.246;2022-08-01T17:56:00;93763.09;;;21.20;70.00
71057;BME280;58380;48.312;9.246;2022-08-01T17:58:30;93771.34;;;21.06;73.09
71057;BME280;58380;48.312;9.246;2022-08-01T18:00:59;93780.50;;;20.96;73.49
71057;BME280;58380;48.312;9.246;2022-08-01T18:03:28;93741.09;;;20.53;75.76
71057;BME280;58380;48.312;9.246;2022-08-01T18:05:57;93720.59;;;20.40;76.87
71057;BME280;58380;48.312;9.246;2022-08-01T18:08:29;93759.59;;;20.55;77.52
71057;BME280;58380;48.312;9.246;2022-08-01T18:10:57;93761.63;;;20.58;77.46
71057;BME280;58380;48.312;9.246;2022-08-01T18:13:26;93761.16;;;20.47;77.67
71057;BME280;58380;48.312;9.246;2022-08-01T18:15:55;93777.69;;;20.32;78.55
71057;BME280;58380;48.312;9.246;2022-08-01T18:18:23;93739.81;;;19.98;79.97
71057;BME280;58380;48.312;9.246;2022-08-01T18:20:52;93787.63;;;20.22;81.58
71057;BME280;58380;48.312;9.246;2022-08-01T18:23:21;93784.78;;;20.10;81.03
71057;BME280;58380;48.312;9.246;2022-08-01T18:25:52;93815.06;;;20.28;81.67
71057;BME280;58380;48.312;9.246;2022-08-01T18:28:25;93728.22;;;19.63;81.48
71057;BME280;58380;48.312;9.246;2022-08-01T18:30:54;93809.34;;;20.03;81.48
71057;BME280;58380;48.312;9.246;2022-08-01T18:33:24;93802.03;;;19.87;82.40
71057;BME280;58380;48.312;9.246;2022-08-01T18:35:57;93748.19;;;19.08;84.01
71057;BME280;58380;48.312;9.246;2022-08-01T18:38:38;93786.41;;;19.00;83.06
71057;BME280;58380;48.312;9.246;2022-08-01T18:41:09;93771.44;;;18.54;84.12
71057;BME280;58380;48.312;9.246;2022-08-01T18:43:38;93856.19;;;18.90;84.74
71057;BME280;58380;48.312;9.246;2022-08-01T18:46:07;93855.88;;;18.91;86.71
71057;BME280;58380;48.312;9.246;2022-08-01T18:48:35;93831.75;;;18.83;87.10
71057;BME280;58380;48.312;9.246;2022-08-01T18:51:04;93819.22;;;18.92;86.55
71057;BME280;58380;48.312;9.246;2022-08-01T18:53:34;93819.06;;;18.88;86.18
71057;BME280;58380;48.312;9.246;2022-08-01T18:56:04;93817.13;;;18.80;85.04
71057;BME280;58380;48.312;9.246;2022-08-01T18:58:38;93817.97;;;18.53;84.33
71057;BME280;58380;48.312;9.246;2022-08-01T19:01:08;93813.88;;;18.33;86.17
71057;BME280;58380;48.312;9.246;2022-08-01T19:03:38;93814.78;;;18.28;87.39
71057;BME280;58380;48.312;9.246;2022-08-01T19:06:06;93837.53;;;18.40;88.20
71057;BME280;58380;48.312;9.246;2022-08-01T19:08:35;93842.56;;;18.41;88.79
71057;BME280;58380;48.312;9.246;2022-08-01T19:11:04;93837.81;;;18.38;88.89
71057;BME280;58380;48.312;9.246;2022-08-01T19:13:33;93831.91;;;18.27;88.75
71057;BME280;58380;48.312;9.246;2022-08-01T19:16:05;93845.66;;;18.35;89.56
71057;BME280;58380;48.312;9.246;2022-08-01T19:18:33;93850.06;;;18.39;89.20
71057;BME280;58380;48.312;9.246;2022-08-01T19:21:04;93847.22;;;18.36;88.98
71057;BME280;58380;48.312;9.246;2022-08-01T19:23:33;93859.50;;;18.37;88.91
71057;BME280;58380;48.312;9.246;2022-08-01T19:26:15;93859.03;;;18.35;89.36
71057;BME280;58380;48.312;9.246;2022-08-01T19:28:54;93858.53;;;18.32;89.95
71057;BME280;58380;48.312;9.246;2022-08-01T19:31:28;93837.56;;;18.26;89.68
71057;BME280;58380;48.312;9.246;2022-08-01T19:33:56;93871.47;;;18.39;89.26
71057;BME280;58380;48.312;9.246;2022-08-01T19:36:25;93853.47;;;18.31;89.60
71057;BME280;58380;48.312;9.246;2022-08-01T19:38:54;93871.56;;;18.34;89.88
71057;BME280;58380;48.312;9.246;2022-08-01T19:41:22;93897.78;;;18.32;89.76
71057;BME280;58380;48.312;9.246;2022-08-01T19:43:51;93870.72;;;18.11;89.42
71057;BME280;58380;48.312;9.246;2022-08-01T19:46:20;93880.31;;;18.12;90.13
71057;BME280;58380;48.312;9.246;2022-08-01T19:48:52;93896.34;;;17.98;90.33
71057;BME280;58380;48.312;9.246;2022-08-01T19:51:22;93916.34;;;18.01;90.89
71057;BME280;58380;48.312;9.246;2022-08-01T19:53:52;93909.69;;;17.84;91.27
71057;BME280;58380;48.312;9.246;2022-08-01T19:56:24;93919.34;;;17.66;91.18
71057;BME280;58380;48.312;9.246;2022-08-01T19:58:58;93946.88;;;17.81;91.95
71057;BME280;58380;48.312;9.246;2022-08-01T20:01:29;93959.16;;;17.96;92.12
71057;BME280;58380;48.312;9.246;2022-08-01T20:04:01;93972.72;;;17.99;91.63
71057;BME280;58380;48.312;9.246;2022-08-01T20:06:31;93910.25;;;17.67;91.22
71057;BME280;58380;48.312;9.246;2022-08-01T20:09:01;93934.91;;;17.92;91.10
71057;BME280;58380;48.312;9.246;2022-08-01T20:11:32;93854.75;;;17.37;91.07
71057;BME280;58380;48.312;9.246;2022-08-01T20:14:01;93941.75;;;17.98;90.92
71057;BME280;58380;48.312;9.246;2022-08-01T20:16:30;93937.09;;;18.04;91.01
71057;BME280;58380;48.312;9.246;2022-08-01T20:19:02;93907.63;;;17.81;91.16
71057;BME280;58380;48.312;9.246;2022-08-01T20:21:32;93919.50;;;17.89;91.04
71057;BME280;58380;48.312;9.246;2022-08-01T20:24:06;93897.50;;;17.78;89.99
71057;BME280;58380;48.312;9.246;2022-08-01T20:26:39;93844.56;;;17.39;90.64
71057;BME280;58380;48.312;9.246;2022-08-01T20:29:10;93913.75;;;17.82;91.46
71057;BME280;58380;48.312;9.246;2022-08-01T20:31:41;93911.28;;;17.85;91.08
71057;BME280;58380;48.312;9.246;2022-08-01T20:34:21;93897.59;;;17.73;91.27
71057;BME280;58380;48.312;9.246;2022-08-01T20:36:52;93871.19;;;17.58;91.31
71057;BME280;58380;48.312;9.246;2022-08-01T20:39:21;93899.59;;;17.81;91.20
71057;BME280;58380;48.312;9.246;2022-08-01T20:41:51;93890.53;;;17.82;90.00
71057;BME280;58380;48.312;9.246;2022-08-01T20:44:21;93784.00;;;17.25;90.35
71057;BME280;58380;48.312;9.246;2022-08-01T20:46:51;93873.69;;;17.82;90.41
71057;BME280;58380;48.312;9.246;2022-08-01T20:49:24;93850.13;;;17.56;89.79
71057;BME280;58380;48.312;9.246;2022-08-01T20:51:54;93835.78;;;17.38;89.76
71057;BME280;58380;48.312;9.246;2022-08-01T20:54:23;93861.50;;;17.48;89.67
71057;BME280;58380;48.312;9.246;2022-08-01T20:56:57;93824.78;;;17.26;90.26
71057;BME280;58380;48.312;9.246;2022-08-01T20:59:32;93876.59;;;17.39;90.01